Aidablu — IBWX — position and weather

sailwx.info

Track history (hours):
 
Tides and Currents Weather Stations Pressure Air Temp Water Temp Dewpoint Dewpoint Depression Visibility Wind Speed Wind Dir Waves Ship Positions

Aidablu

Last reported at 2015-Sep-03 01:26 UTC. Time now 2015-Sep-03 13:00 UTC.
Position N 39°23' E 003°53'.

Length 252 m; draft 7.3 m.

Type: Ship. MMSI: 247282500.

Date/timePositionNaut miles runAvg speedWind from/ knotsBaromVisibWave heightAir tempDewpointWater temp
2015-Sep-03 01:26N 39°23' E 003°53'1314.4
2015-Sep-03 00:33N 39°17' E 003°38'1413.8
2015-Sep-02 23:33N 39°13' E 003°21'1414.1
2015-Sep-02 22:33N 39°13' E 003°03'1413.9
2015-Sep-02 21:34N 39°19' E 002°46'1313.3
2015-Sep-02 20:33N 39°31' E 002°39'3 2.8
2015-Sep-02 19:33N 39°33' E 002°38'0 0.0
2015-Sep-02 18:30N 39°33' E 002°38'0 0.0
2015-Sep-02 17:29N 39°33' E 002°38'0 0.0
2015-Sep-02 16:32N 39°33' E 002°38'0 0.0
2015-Sep-02 15:29N 39°33' E 002°38'0 0.0
2015-Sep-02 14:31N 39°33' E 002°38'0 0.0
2015-Sep-02 13:31N 39°33' E 002°38'0 0.0
2015-Sep-02 12:33N 39°33' E 002°38'0 0.0
2015-Sep-02 11:33N 39°33' E 002°38'0 0.0
2015-Sep-02 10:32N 39°33' E 002°38'0 0.0
2015-Sep-02 09:29N 39°33' E 002°38'0 0.0
2015-Sep-02 08:32N 39°33' E 002°38'0 0.0
2015-Sep-02 07:31N 39°33' E 002°38'0 0.0
2015-Sep-02 06:31N 39°33' E 002°38'0 0.0
2015-Sep-02 05:33N 39°33' E 002°38'0 0.0
2015-Sep-02 04:33N 39°33' E 002°38'0 0.0
2015-Sep-02 03:32N 39°33' E 002°38'0 0.1
2015-Sep-02 02:33N 39°33' E 002°38'8 7.8
2015-Sep-02 01:33N 39°26' E 002°33'1312.6
2015-Sep-02 00:33N 39°32' E 002°18'1212.2
2015-Sep-01 23:32N 39°43' E 002°14'1313.1
2015-Sep-01 22:33N 39°56' E 002°13'1313.3
2015-Sep-01 21:33N 40°10' E 002°13'1313.3
2015-Sep-01 20:33N 40°23' E 002°12'1313.4
2015-Sep-01 19:33N 40°36' E 002°11'1413.5
2015-Sep-01 18:33N 40°50' E 002°12'1413.8
2015-Sep-01 17:33N 41°04' E 002°11'1313.1
2015-Sep-01 16:32N 41°17' E 002°11'4 2.1
2015-Sep-01 14:29N 41°21' E 002°11'0 0.0
2015-Sep-01 13:04N 41°21' E 002°11'0 0.0
2015-Sep-01 05:08N 41°21' E 002°10'4 4.8
2015-Sep-01 04:19N 41°17' E 002°11'1012.9
2015-Sep-01 03:33N 41°18' E 002°24'1413.7
2015-Sep-01 02:33N 41°19' E 002°42'1413.9
2015-Sep-01 01:33N 41°21' E 003°00'1414.0
2015-Sep-01 00:33N 41°22' E 003°19'1414.3
2015-Aug-31 23:33N 41°24' E 003°38'75 8.8
2015-Aug-31 15:04N 41°31' E 005°17'3 5.8
2015-Aug-31 14:33N 41°32' E 005°21'6 5.7
2015-Aug-31 13:33N 41°32' E 005°29'6 5.8
2015-Aug-31 12:31N 41°33' E 005°36'7 5.7
2015-Aug-31 11:16N 41°34' E 005°46'5 5.7
2015-Aug-31 10:28N 41°34' E 005°52'5 6.1
2015-Aug-31 09:34N 41°35' E 005°59'38 5.8
2015-Aug-31 03:04N 41°39' E 006°49'4 7.1
2015-Aug-31 02:34N 41°39' E 006°54'4113.5
2015-Aug-30 23:29N 41°44' E 007°49'1313.7
2015-Aug-30 22:34N 41°45' E 008°06'1413.7
2015-Aug-30 21:33N 41°46' E 008°24'71 3.3
2015-Aug-30 00:19N 42°53' E 008°57'1113.9
2015-Aug-29 23:33N 43°00' E 009°08'1614.5
2015-Aug-29 22:27N 43°09' E 009°26'1313.7
2015-Aug-29 21:32N 43°14' E 009°42'16 6.9
2015-Aug-29 19:10N 43°21' E 010°02'5 7.2
2015-Aug-29 18:31N 43°25' E 010°06'1010.5
2015-Aug-29 17:33N 43°32' E 010°16'2 1.7
2015-Aug-29 16:20N 43°33' E 010°18'0 0.0
2015-Aug-29 15:25N 43°33' E 010°18'0 0.0
2015-Aug-29 14:31N 43°33' E 010°18'0 0.0
2015-Aug-29 13:31N 43°33' E 010°18'1 0.1
2015-Aug-29 05:14N 43°33' E 010°17'5 8.2
2015-Aug-29 04:33N 43°28' E 010°13'1414.3
2015-Aug-29 03:34N 43°14' E 010°09'1413.6
2015-Aug-29 02:33N 43°01' E 010°05'7 7.4
2015-Aug-29 01:33N 42°54' E 010°03'1211.2
2015-Aug-29 00:27N 42°42' E 010°06'138 5.7
2015-Aug-28 00:12N 41°15' E 012°30'914.1
2015-Aug-27 23:33N 41°11' E 012°41'2814.2
2015-Aug-27 21:34N 40°58' E 013°14'1713.5
2015-Aug-27 20:19N 40°49' E 013°33'1113.8
2015-Aug-27 19:32N 40°42' E 013°44'1312.9
2015-Aug-27 18:33N 40°38' E 013°60'1313.1
2015-Aug-27 17:33N 40°46' E 014°14'4 0.4
2015-Aug-27 05:29N 40°50' E 014°16'6 6.5
2015-Aug-27 04:33N 40°44' E 014°16'1414.2
2015-Aug-27 03:34N 40°32' E 014°07'13514.3
2015-Aug-26 18:06N 38°20' E 013°29'814.0
2015-Aug-26 17:33N 38°13' E 013°27'6 4.9
2015-Aug-26 16:19N 38°08' E 013°22'0 0.0
2015-Aug-26 15:12N 38°08' E 013°22'0 0.0
2015-Aug-26 14:21N 38°08' E 013°22'0 0.0
2015-Aug-26 13:33N 38°08' E 013°22'0 0.0
2015-Aug-26 12:20N 38°08' E 013°22'0 0.0
2015-Aug-26 11:32N 38°08' E 013°22'0 0.0
2015-Aug-26 10:28N 38°08' E 013°22'0 0.0
2015-Aug-26 09:31N 38°08' E 013°22'0 0.0
2015-Aug-26 08:30N 38°08' E 013°22'0 0.0
2015-Aug-26 07:33N 38°08' E 013°22'5 5.4
2015-Aug-26 06:34N 38°13' E 013°23'1313.2
2015-Aug-26 05:33N 38°23' E 013°13'22715.7
2015-Aug-25 15:07N 40°55' E 009°34'2 2.3
2015-Aug-25 14:10N 40°55' E 009°31'0 0.0
2015-Aug-25 13:24N 40°55' E 009°31'0 0.0
2015-Aug-25 12:33N 40°55' E 009°31'0 0.0
2015-Aug-25 11:26N 40°55' E 009°31'0 0.0
2015-Aug-25 10:32N 40°55' E 009°31'0 0.0
2015-Aug-25 09:29N 40°55' E 009°31'0 0.0
2015-Aug-25 08:22N 40°55' E 009°31'0 0.0
2015-Aug-25 07:31N 40°55' E 009°31'0 0.0
2015-Aug-25 06:24N 40°55' E 009°31'0 0.0
2015-Aug-25 05:33N 40°55' E 009°31'1 0.9
2015-Aug-25 04:33N 40°55' E 009°32'249 9.9
2015-Aug-24 03:33N 39°35' E 004°24'1413.9
2015-Aug-24 02:33N 39°29' E 004°08'1414.1
2015-Aug-24 01:33N 39°22' E 003°52'  
Track history (hours):
 
Tides and Currents Weather Stations Pressure Air Temp Water Temp Dewpoint Dewpoint Depression Visibility Wind Speed Wind Dir Waves Ship Positions

Aidablu

Last reported at 2015-Sep-03 01:26 UTC. Time now 2015-Sep-03 13:00 UTC.
Position N 39°23' E 003°53'.

Length 252 m; draft 7.3 m.

Type: Ship. MMSI: 247282500.

Date/timePositionNaut miles runAvg speedWind from/ knotsBaromVisibWave heightAir tempDewpointWater temp
2015-Sep-03 01:26N 39°23' E 003°53'1314.4
2015-Sep-03 00:33N 39°17' E 003°38'1413.8
2015-Sep-02 23:33N 39°13' E 003°21'1414.1
2015-Sep-02 22:33N 39°13' E 003°03'1413.9
2015-Sep-02 21:34N 39°19' E 002°46'1313.3
2015-Sep-02 20:33N 39°31' E 002°39'3 2.8
2015-Sep-02 19:33N 39°33' E 002°38'0 0.0
2015-Sep-02 18:30N 39°33' E 002°38'0 0.0
2015-Sep-02 17:29N 39°33' E 002°38'0 0.0
2015-Sep-02 16:32N 39°33' E 002°38'0 0.0
2015-Sep-02 15:29N 39°33' E 002°38'0 0.0
2015-Sep-02 14:31N 39°33' E 002°38'0 0.0
2015-Sep-02 13:31N 39°33' E 002°38'0 0.0
2015-Sep-02 12:33N 39°33' E 002°38'0 0.0
2015-Sep-02 11:33N 39°33' E 002°38'0 0.0
2015-Sep-02 10:32N 39°33' E 002°38'0 0.0
2015-Sep-02 09:29N 39°33' E 002°38'0 0.0
2015-Sep-02 08:32N 39°33' E 002°38'0 0.0
2015-Sep-02 07:31N 39°33' E 002°38'0 0.0
2015-Sep-02 06:31N 39°33' E 002°38'0 0.0
2015-Sep-02 05:33N 39°33' E 002°38'0 0.0
2015-Sep-02 04:33N 39°33' E 002°38'0 0.0
2015-Sep-02 03:32N 39°33' E 002°38'0 0.1
2015-Sep-02 02:33N 39°33' E 002°38'8 7.8
2015-Sep-02 01:33N 39°26' E 002°33'1312.6
2015-Sep-02 00:33N 39°32' E 002°18'1212.2
2015-Sep-01 23:32N 39°43' E 002°14'1313.1
2015-Sep-01 22:33N 39°56' E 002°13'1313.3
2015-Sep-01 21:33N 40°10' E 002°13'1313.3
2015-Sep-01 20:33N 40°23' E 002°12'1313.4
2015-Sep-01 19:33N 40°36' E 002°11'1413.5
2015-Sep-01 18:33N 40°50' E 002°12'1413.8
2015-Sep-01 17:33N 41°04' E 002°11'1313.1
2015-Sep-01 16:32N 41°17' E 002°11'4 2.1
2015-Sep-01 14:29N 41°21' E 002°11'0 0.0
2015-Sep-01 13:04N 41°21' E 002°11'0 0.0
2015-Sep-01 05:08N 41°21' E 002°10'4 4.8
2015-Sep-01 04:19N 41°17' E 002°11'1012.9
2015-Sep-01 03:33N 41°18' E 002°24'1413.7
2015-Sep-01 02:33N 41°19' E 002°42'1413.9
2015-Sep-01 01:33N 41°21' E 003°00'1414.0
2015-Sep-01 00:33N 41°22' E 003°19'1414.3
2015-Aug-31 23:33N 41°24' E 003°38'75 8.8
2015-Aug-31 15:04N 41°31' E 005°17'3 5.8
2015-Aug-31 14:33N 41°32' E 005°21'6 5.7
2015-Aug-31 13:33N 41°32' E 005°29'6 5.8
2015-Aug-31 12:31N 41°33' E 005°36'7 5.7
2015-Aug-31 11:16N 41°34' E 005°46'5 5.7
2015-Aug-31 10:28N 41°34' E 005°52'5 6.1
2015-Aug-31 09:34N 41°35' E 005°59'38 5.8
2015-Aug-31 03:04N 41°39' E 006°49'4 7.1
2015-Aug-31 02:34N 41°39' E 006°54'4113.5
2015-Aug-30 23:29N 41°44' E 007°49'1313.7
2015-Aug-30 22:34N 41°45' E 008°06'1413.7
2015-Aug-30 21:33N 41°46' E 008°24'71 3.3
2015-Aug-30 00:19N 42°53' E 008°57'1113.9
2015-Aug-29 23:33N 43°00' E 009°08'1614.5
2015-Aug-29 22:27N 43°09' E 009°26'1313.7
2015-Aug-29 21:32N 43°14' E 009°42'16 6.9
2015-Aug-29 19:10N 43°21' E 010°02'5 7.2
2015-Aug-29 18:31N 43°25' E 010°06'1010.5
2015-Aug-29 17:33N 43°32' E 010°16'2 1.7
2015-Aug-29 16:20N 43°33' E 010°18'0 0.0
2015-Aug-29 15:25N 43°33' E 010°18'0 0.0
2015-Aug-29 14:31N 43°33' E 010°18'0 0.0
2015-Aug-29 13:31N 43°33' E 010°18'1 0.1
2015-Aug-29 05:14N 43°33' E 010°17'5 8.2
2015-Aug-29 04:33N 43°28' E 010°13'1414.3
2015-Aug-29 03:34N 43°14' E 010°09'1413.6
2015-Aug-29 02:33N 43°01' E 010°05'7 7.4
2015-Aug-29 01:33N 42°54' E 010°03'1211.2
2015-Aug-29 00:27N 42°42' E 010°06'138 5.7
2015-Aug-28 00:12N 41°15' E 012°30'914.1
2015-Aug-27 23:33N 41°11' E 012°41'2814.2
2015-Aug-27 21:34N 40°58' E 013°14'1713.5
2015-Aug-27 20:19N 40°49' E 013°33'1113.8
2015-Aug-27 19:32N 40°42' E 013°44'1312.9
2015-Aug-27 18:33N 40°38' E 013°60'1313.1
2015-Aug-27 17:33N 40°46' E 014°14'4 0.4
2015-Aug-27 05:29N 40°50' E 014°16'6 6.5
2015-Aug-27 04:33N 40°44' E 014°16'1414.2
2015-Aug-27 03:34N 40°32' E 014°07'13514.3
2015-Aug-26 18:06N 38°20' E 013°29'814.0
2015-Aug-26 17:33N 38°13' E 013°27'6 4.9
2015-Aug-26 16:19N 38°08' E 013°22'0 0.0
2015-Aug-26 15:12N 38°08' E 013°22'0 0.0
2015-Aug-26 14:21N 38°08' E 013°22'0 0.0
2015-Aug-26 13:33N 38°08' E 013°22'0 0.0
2015-Aug-26 12:20N 38°08' E 013°22'0 0.0
2015-Aug-26 11:32N 38°08' E 013°22'0 0.0
2015-Aug-26 10:28N 38°08' E 013°22'0 0.0
2015-Aug-26 09:31N 38°08' E 013°22'0 0.0
2015-Aug-26 08:30N 38°08' E 013°22'0 0.0
2015-Aug-26 07:33N 38°08' E 013°22'5 5.4
2015-Aug-26 06:34N 38°13' E 013°23'1313.2
2015-Aug-26 05:33N 38°23' E 013°13'22715.7
2015-Aug-25 15:07N 40°55' E 009°34'2 2.3
2015-Aug-25 14:10N 40°55' E 009°31'0 0.0
2015-Aug-25 13:24N 40°55' E 009°31'0 0.0
2015-Aug-25 12:33N 40°55' E 009°31'0 0.0
2015-Aug-25 11:26N 40°55' E 009°31'0 0.0
2015-Aug-25 10:32N 40°55' E 009°31'0 0.0
2015-Aug-25 09:29N 40°55' E 009°31'0 0.0
2015-Aug-25 08:22N 40°55' E 009°31'0 0.0
2015-Aug-25 07:31N 40°55' E 009°31'0 0.0
2015-Aug-25 06:24N 40°55' E 009°31'0 0.0
2015-Aug-25 05:33N 40°55' E 009°31'1 0.9
2015-Aug-25 04:33N 40°55' E 009°32'249 9.9
2015-Aug-24 03:33N 39°35' E 004°24'1413.9
2015-Aug-24 02:33N 39°29' E 004°08'1414.1
2015-Aug-24 01:33N 39°22' E 003°52'  

Dump ship's entire track history